Time;durP1;ratioP1;P1;durP2;ratioP2;P2;SDS_P1;SDS_P2;PMS_P1;PMS_P2;Temp;Humidity;BMP_temperature;BMP_pressure;BME280_temperature;BME280_humidity;BME280_pressure;Samples;Min_cycle;Max_cycle;Signal;HPM_P1;HPM_P2
2022/07/28 00:00:32;;;;;;;8.63;7.40;;;15.60;99.90;16.90;96896.00;;;;5065162;28;20200;-64
2022/07/28 00:03:21;;;;;;;7.87;7.07;;;15.60;99.90;16.80;96896.00;;;;5054669;28;20707;-65
2022/07/28 00:06:10;;;;;;;7.23;6.53;;;15.60;99.90;16.60;96909.00;;;;5048258;28;20211;-65
2022/07/28 00:08:58;;;;;;;8.57;7.13;;;15.50;99.90;16.80;96903.00;;;;5054488;28;20574;-65
2022/07/28 00:11:47;;;;;;;7.97;6.63;;;15.60;99.90;16.80;96898.00;;;;5057833;28;20196;-64
2022/07/28 00:14:36;;;;;;;10.50;7.97;;;15.60;99.90;16.60;96908.00;;;;5054923;28;20232;-65
2022/07/28 00:17:26;;;;;;;10.57;7.53;;;15.50;99.90;16.80;96909.00;;;;5050837;28;20247;-66
2022/07/28 00:20:15;;;;;;;8.73;7.83;;;15.60;99.90;16.80;96906.00;;;;5048967;28;20691;-67
2022/07/28 00:23:03;;;;;;;8.73;6.50;;;15.40;99.90;16.40;96893.00;;;;5058420;28;20299;-63
2022/07/28 00:25:52;;;;;;;6.50;5.90;;;15.50;99.90;16.40;96911.00;;;;5054646;28;20205;-66
2022/07/28 00:28:41;;;;;;;6.33;5.77;;;15.40;99.90;16.40;96911.00;;;;5056373;28;20562;-66
2022/07/28 00:31:30;;;;;;;8.70;7.67;;;15.30;99.90;16.70;96911.00;;;;5050793;28;20601;-66
2022/07/28 00:34:20;;;;;;;7.53;6.83;;;15.60;99.90;16.80;96915.00;;;;5048791;28;20692;-66
2022/07/28 00:37:09;;;;;;;9.50;8.13;;;15.30;99.90;16.70;96916.00;;;;5058520;28;20221;-66
2022/07/28 00:39:58;;;;;;;7.73;6.90;;;15.40;99.90;16.80;96912.00;;;;5051102;28;20193;-66
2022/07/28 00:42:46;;;;;;;9.17;8.27;;;15.30;99.90;16.80;96912.00;;;;5055118;28;20683;-66
2022/07/28 00:45:35;;;;;;;9.00;6.87;;;15.40;99.90;16.90;96906.00;;;;5055430;28;20199;-66
2022/07/28 00:48:24;;;;;;;7.93;7.13;;;15.50;99.90;16.90;96905.00;;;;5055558;28;20196;-66
2022/07/28 00:51:16;;;;;;;7.73;6.80;;;15.50;99.90;16.90;96901.00;;;;5056437;28;20204;-66
2022/07/28 00:54:05;;;;;;;7.17;6.30;;;15.70;99.90;16.50;96902.00;;;;5058819;28;20228;-66
2022/07/28 00:56:54;;;;;;;7.47;5.87;;;15.60;99.90;16.50;96899.00;;;;5062666;28;20679;-65
2022/07/28 00:59:43;;;;;;;7.33;5.80;;;15.40;99.90;16.40;96893.00;;;;5060903;28;20588;-65
2022/07/28 01:02:32;;;;;;;6.17;5.27;;;15.20;99.90;16.30;96885.00;;;;5050958;28;20272;-65
2022/07/28 01:05:21;;;;;;;8.00;5.23;;;15.30;99.90;16.10;96888.00;;;;5058473;28;20578;-65
2022/07/28 01:08:21;;;;;;;7.80;7.00;;;15.10;99.90;16.30;96891.00;;;;5058427;28;20219;-65
2022/07/28 01:11:21;;;;;;;10.30;7.60;;;15.10;99.90;16.50;96881.00;;;;5054344;28;20694;-64
2022/07/28 01:14:24;;;;;;;6.97;6.30;;;15.30;99.90;16.40;96888.00;;;;5062181;28;20277;-65
2022/07/28 01:17:25;;;;;;;6.37;5.73;;;15.50;99.90;16.40;96896.00;;;;5065059;28;20599;-65
2022/07/28 01:20:22;;;;;;;9.27;6.90;;;15.00;99.90;16.30;96886.00;;;;5051255;28;20196;-65
2022/07/28 01:23:51;;;;;;;9.40;6.97;;;15.20;99.90;16.30;96893.00;;;;5056672;28;20611;-64
2022/07/28 01:26:54;;;;;;;7.00;6.30;;;15.10;99.90;16.10;96886.00;;;;5062354;28;20671;-65
2022/07/28 01:30:05;;;;;;;7.20;5.73;;;15.00;99.90;16.10;96890.00;;;;5064764;28;20208;-65
2022/07/28 01:33:09;;;;;;;6.63;5.60;;;14.90;99.90;15.80;96895.00;;;;5052451;28;20236;-65
2022/07/28 01:36:06;;;;;;;9.07;5.90;;;14.90;99.90;16.10;96884.00;;;;5049610;28;20220;-65
2022/07/28 01:38:56;;;;;;;7.83;6.07;;;15.10;99.90;16.00;96897.00;;;;5058700;28;20706;-65
2022/07/28 01:41:46;;;;;;;10.63;6.83;;;15.00;99.90;15.80;96895.00;;;;5055617;28;20204;-65
2022/07/28 01:44:41;;;;;;;9.37;7.20;;;14.80;99.90;15.90;96896.00;;;;5062046;28;20221;-66
2022/07/28 01:47:30;;;;;;;8.00;6.23;;;14.90;99.90;15.60;96883.00;;;;5048838;28;20211;-65
2022/07/28 01:50:23;;;;;;;8.07;6.43;;;14.90;99.90;15.50;96885.00;;;;5063866;28;20193;-65
2022/07/28 01:53:15;;;;;;;7.50;5.63;;;14.60;99.90;15.60;96879.00;;;;5061527;28;20220;-65
2022/07/28 01:56:05;;;;;;;6.20;5.57;;;14.50;99.90;15.20;96874.00;;;;5058059;28;20200;-65
2022/07/28 01:58:58;;;;;;;6.00;5.50;;;14.60;99.90;14.90;96883.00;;;;5055305;28;20205;-64
2022/07/28 02:01:49;;;;;;;6.53;5.93;;;14.40;99.90;15.20;96878.00;;;;5051898;28;20208;-65
2022/07/28 02:04:40;;;;;;;6.20;5.47;;;14.40;99.90;15.30;96881.00;;;;5056940;28;20293;-65
2022/07/28 02:07:32;;;;;;;8.20;7.47;;;;;15.40;96876.00;;;;5065537;28;20288;-65
2022/07/28 02:10:22;;;;;;;6.87;6.17;;;14.30;99.90;15.60;96873.00;;;;5054827;28;20208;-66
2022/07/28 02:13:12;;;;;;;8.00;6.43;;;14.30;99.90;15.70;96882.00;;;;5056152;28;20240;-66
2022/07/28 02:16:04;;;;;;;8.10;6.47;;;14.30;99.90;15.70;96877.00;;;;5058519;28;20274;-66
2022/07/28 02:18:57;;;;;;;8.67;7.10;;;14.40;99.90;15.90;96876.00;;;;5052389;28;20201;-65
2022/07/28 02:21:47;;;;;;;6.60;5.50;;;14.50;99.90;15.70;96877.00;;;;5055903;28;20893;-65
2022/07/28 02:24:38;;;;;;;8.83;5.70;;;14.50;99.90;15.70;96885.00;;;;5049186;28;20228;-65
2022/07/28 02:27:35;;;;;;;6.70;6.10;;;14.50;99.90;15.80;96880.00;;;;5063314;28;20417;-64
2022/07/28 02:30:32;;;;;;;9.73;5.37;;;14.60;99.90;15.70;96878.00;;;;5061751;28;20204;-66
2022/07/28 02:33:24;;;;;;;6.97;6.27;;;14.50;99.90;15.80;96875.00;;;;5058273;28;20220;-67
2022/07/28 02:36:19;;;;;;;9.43;6.63;;;14.60;99.90;16.10;96867.00;;;;5057088;28;20196;-67
2022/07/28 02:39:17;;;;;;;7.60;6.50;;;14.60;99.90;16.10;96875.00;;;;5057568;28;20200;-67
2022/07/28 02:42:14;;;;;;;8.73;6.07;;;14.70;99.90;15.90;96870.00;;;;5053877;28;20600;-67
2022/07/28 02:45:07;;;;;;;8.67;6.33;;;14.70;99.90;16.00;96869.00;;;;5052377;28;20197;-67
2022/07/28 02:48:02;;;;;;;7.73;5.73;;;14.70;99.90;16.00;96872.00;;;;5061995;28;20668;-66
2022/07/28 02:50:53;;;;;;;6.73;5.67;;;14.70;99.90;16.00;96868.00;;;;5061252;28;20590;-66
2022/07/28 02:53:43;;;;;;;7.23;6.47;;;14.80;99.90;16.00;96871.00;;;;5057449;28;20220;-66
2022/07/28 02:56:32;;;;;;;7.47;6.53;;;14.80;99.90;16.30;96871.00;;;;5056775;28;20205;-66
2022/07/28 02:59:24;;;;;;;6.23;5.17;;;14.80;99.90;15.50;96872.00;;;;5059432;28;20215;-68
2022/07/28 03:02:13;;;;;;;6.77;5.50;;;14.80;99.90;15.60;96875.00;;;;5054005;28;20679;-65
2022/07/28 03:05:03;;;;;;;6.13;5.53;;;14.70;99.90;15.50;96872.00;;;;5044942;28;20215;-66
2022/07/28 03:07:53;;;;;;;5.87;5.37;;;14.70;99.90;15.70;96875.00;;;;5058840;28;20596;-66
2022/07/28 03:10:42;;;;;;;10.07;5.80;;;14.60;99.90;15.80;96887.00;;;;5051200;28;20203;-65
2022/07/28 03:13:31;;;;;;;7.10;6.20;;;14.60;99.90;15.70;96883.00;;;;5059197;28;20224;-65
2022/07/28 03:16:21;;;;;;;6.73;5.63;;;14.60;99.90;15.50;96881.00;;;;5057325;28;20203;-65
2022/07/28 03:19:10;;;;;;;5.00;4.53;;;14.60;99.90;15.60;96883.00;;;;5061993;28;20594;-65
2022/07/28 03:21:59;;;;;;;5.97;5.37;;;14.50;99.90;15.60;96886.00;;;;5055079;28;20196;-65
2022/07/28 03:24:52;;;;;;;5.43;4.93;;;14.60;99.90;15.30;96888.00;;;;5053577;28;20200;-65
2022/07/28 03:27:46;;;;;;;5.53;5.03;;;14.50;99.90;15.60;96895.00;;;;5052502;28;20219;-65
2022/07/28 03:30:40;;;;;;;6.00;4.80;;;14.50;99.90;15.80;96899.00;;;;5061131;28;20196;-65
2022/07/28 03:33:31;;;;;;;8.77;5.47;;;14.50;99.90;15.80;96901.00;;;;5052321;28;20216;-65
2022/07/28 03:36:31;;;;;;;5.53;5.00;;;14.60;99.90;15.50;96887.00;;;;5066829;28;20197;-67
2022/07/28 03:39:20;;;;;;;6.37;5.57;;;14.50;99.90;15.50;96884.00;;;;5063000;28;20204;-66
2022/07/28 03:42:11;;;;;;;6.03;5.40;;;14.50;99.90;15.40;96905.00;;;;5054785;28;20708;-65
2022/07/28 03:45:01;;;;;;;5.73;5.23;;;14.50;99.90;15.70;96903.00;;;;5056201;28;20282;-65
2022/07/28 03:47:52;;;;;;;8.37;6.40;;;14.60;99.90;16.00;96908.00;;;;5054368;28;20201;-65
2022/07/28 03:50:42;;;;;;;6.27;5.67;;;14.60;99.90;15.80;96913.00;;;;5065065;28;20204;-66
2022/07/28 03:53:31;;;;;;;6.90;6.20;;;14.70;99.90;16.00;96915.00;;;;5052708;28;20217;-66
2022/07/28 03:56:20;;;;;;;6.80;5.70;;;14.70;99.90;16.10;96915.00;;;;5062748;28;20204;-65
2022/07/28 03:59:10;;;;;;;6.43;5.83;;;14.80;99.90;16.00;96904.00;;;;5049233;28;20216;-65
2022/07/28 04:01:58;;;;;;;5.73;5.13;;;14.80;99.90;16.00;96911.00;;;;5045456;28;20197;-65
2022/07/28 04:04:47;;;;;;;8.07;6.33;;;14.80;99.90;16.00;96900.00;;;;5063026;28;20197;-66
2022/07/28 04:07:37;;;;;;;7.33;6.40;;;14.80;99.90;16.20;96916.00;;;;5056325;28;20769;-65
2022/07/28 04:10:26;;;;;;;6.33;5.13;;;14.90;99.90;16.30;96900.00;;;;5061083;28;20195;-65
2022/07/28 04:13:15;;;;;;;6.27;5.67;;;14.90;99.90;16.40;96906.00;;;;5055861;28;20710;-66
2022/07/28 04:16:05;;;;;;;7.07;5.87;;;15.00;99.90;16.00;96911.00;;;;5063820;28;20212;-64
2022/07/28 04:18:54;;;;;;;7.10;5.73;;;15.00;99.90;16.10;96915.00;;;;5058334;28;20297;-65
2022/07/28 04:21:43;;;;;;;5.87;5.10;;;15.00;99.90;16.20;96918.00;;;;5052785;28;20212;-65
2022/07/28 04:24:33;;;;;;;7.67;5.23;;;15.00;99.90;16.00;96925.00;;;;5054742;28;20699;-66
2022/07/28 04:27:21;;;;;;;5.93;5.30;;;15.00;99.90;15.90;96928.00;;;;5056522;28;20575;-65
2022/07/28 04:30:14;;;;;;;6.83;5.27;;;14.90;99.90;16.20;96928.00;;;;5056037;28;20210;-66
2022/07/28 04:33:03;;;;;;;5.93;5.43;;;14.90;99.90;16.00;96925.00;;;;5052661;28;20224;-65
2022/07/28 04:35:52;;;;;;;7.03;5.37;;;14.90;99.90;15.90;96927.00;;;;5046121;28;20207;-68
2022/07/28 04:38:41;;;;;;;5.93;5.33;;;14.90;99.90;16.10;96926.00;;;;5049253;28;20224;-66
2022/07/28 04:41:31;;;;;;;5.73;5.13;;;15.00;99.90;15.90;96927.00;;;;5047873;28;20700;-66
2022/07/28 04:44:20;;;;;;;10.33;5.67;;;15.00;99.90;16.10;96925.00;;;;5049712;28;20727;-65
2022/07/28 04:47:08;;;;;;;6.50;5.90;;;15.00;99.90;16.20;96928.00;;;;5069977;28;20663;-66
2022/07/28 04:49:57;;;;;;;6.97;6.00;;;15.10;99.90;16.20;96931.00;;;;5055135;28;20290;-64
2022/07/28 04:52:48;;;;;;;7.20;5.57;;;15.10;99.90;16.30;96940.00;;;;5065344;28;20223;-64
2022/07/28 04:55:37;;;;;;;9.43;5.83;;;15.10;99.90;16.40;96930.00;;;;5056751;28;20204;-64
2022/07/28 04:58:27;;;;;;;6.80;6.10;;;15.20;99.90;16.40;96952.00;;;;5053685;28;20759;-64
2022/07/28 05:01:16;;;;;;;7.10;5.73;;;15.20;99.90;16.40;96939.00;;;;5060001;28;20215;-64
2022/07/28 05:04:05;;;;;;;7.57;5.73;;;15.20;99.90;16.70;96948.00;;;;5062218;28;20294;-63
2022/07/28 05:06:54;;;;;;;6.40;5.67;;;15.30;99.90;16.60;96943.00;;;;5058421;28;20212;-65
2022/07/28 05:09:43;;;;;;;6.47;5.87;;;15.30;99.90;16.60;96933.00;;;;5054548;28;20212;-64
2022/07/28 05:12:32;;;;;;;7.40;6.27;;;15.40;99.90;16.80;96938.00;;;;5060382;28;20671;-63
2022/07/28 05:15:22;;;;;;;10.10;6.97;;;15.50;99.90;16.90;96945.00;;;;5054326;28;20206;-64
2022/07/28 05:18:11;;;;;;;6.83;5.50;;;15.50;99.90;16.90;96943.00;;;;5057802;28;20230;-63
2022/07/28 05:20:59;;;;;;;9.03;6.50;;;15.60;99.90;16.90;96955.00;;;;5060300;28;20203;-64
2022/07/28 05:23:48;;;;;;;6.83;6.07;;;15.70;99.90;17.00;96954.00;;;;5068115;28;20227;-64
2022/07/28 05:26:37;;;;;;;7.30;6.60;;;15.50;99.90;17.30;96957.00;;;;5061377;28;20212;-63
2022/07/28 05:29:26;;;;;;;6.97;6.27;;;15.20;99.90;17.20;96962.00;;;;5059461;28;20201;-65
2022/07/28 05:32:16;;;;;;;7.93;5.83;;;15.90;99.90;17.10;96955.00;;;;5059339;28;20698;-66
2022/07/28 05:35:07;;;;;;;8.87;7.00;;;15.90;99.90;17.50;96960.00;;;;5061810;28;20541;-64
2022/07/28 05:37:56;;;;;;;8.33;6.83;;;16.00;99.90;17.40;96960.00;;;;5056039;28;20219;-64
2022/07/28 05:40:44;;;;;;;6.77;6.00;;;16.80;99.90;17.50;96958.00;;;;5051025;28;20207;-64
2022/07/28 05:43:36;;;;;;;7.20;5.67;;;16.20;99.90;17.40;96961.00;;;;5054350;28;20227;-65
2022/07/28 05:46:25;;;;;;;8.23;6.70;;;16.20;99.90;17.30;96965.00;;;;5067535;28;20207;-63
2022/07/28 05:49:15;;;;;;;7.80;6.10;;;16.20;99.90;17.40;96967.00;;;;5058768;28;20676;-63
2022/07/28 05:52:03;;;;;;;9.60;6.70;;;16.20;99.90;17.50;96979.00;;;;5058544;28;20200;-64
2022/07/28 05:54:52;;;;;;;9.83;6.53;;;16.20;99.90;17.60;96970.00;;;;5067494;28;20208;-63
2022/07/28 05:57:42;;;;;;;6.47;5.70;;;16.30;99.90;17.80;96962.00;;;;5070784;28;20215;-64
2022/07/28 06:00:32;;;;;;;7.03;6.30;;;16.40;99.90;17.90;96968.00;;;;5060964;28;20200;-63
2022/07/28 06:03:20;;;;;;;7.70;6.93;;;16.40;99.90;17.80;96962.00;;;;5069533;28;20224;-64
2022/07/28 06:06:11;;;;;;;8.70;6.27;;;16.50;99.90;17.80;96960.00;;;;5068611;28;20212;-64
2022/07/28 06:08:59;;;;;;;9.53;6.93;;;16.50;99.90;18.10;96970.00;;;;5069481;28;20218;-64
2022/07/28 06:11:49;;;;;;;13.33;7.93;;;16.60;99.90;18.00;96960.00;;;;5068018;28;20569;-65
2022/07/28 06:14:37;;;;;;;8.67;7.47;;;16.60;99.90;18.10;96965.00;;;;5060068;28;20224;-63
2022/07/28 06:17:26;;;;;;;10.77;6.83;;;16.70;99.90;18.20;96965.00;;;;5068497;28;20203;-64
2022/07/28 06:20:15;;;;;;;9.23;7.13;;;16.80;99.90;18.20;96967.00;;;;5063862;28;20228;-63
2022/07/28 06:23:05;;;;;;;7.83;6.87;;;16.80;99.90;18.20;96967.00;;;;5067784;28;20219;-64
2022/07/28 06:25:54;;;;;;;8.70;7.80;;;16.90;99.90;18.60;96958.00;;;;5056248;28;20546;-63
2022/07/28 06:28:43;;;;;;;9.57;7.80;;;17.00;99.90;18.80;96964.00;;;;5068580;28;20765;-64
2022/07/28 06:31:32;;;;;;;8.40;7.57;;;17.10;99.90;18.70;96960.00;;;;5068937;28;20578;-64
2022/07/28 06:34:20;;;;;;;8.33;7.33;;;17.20;99.90;18.90;96963.00;;;;5066241;28;20234;-63
2022/07/28 06:37:09;;;;;;;7.77;6.83;;;17.30;99.90;19.00;96964.00;;;;5067402;28;20968;-63
2022/07/28 06:39:59;;;;;;;13.60;8.20;;;17.40;99.90;19.30;96951.00;;;;5055416;28;20240;-63
2022/07/28 06:42:49;;;;;;;11.20;7.47;;;17.50;99.90;19.20;96959.00;;;;5068585;28;20212;-63
2022/07/28 06:45:39;;;;;;;8.10;7.30;;;17.60;99.90;19.20;96962.00;;;;5068608;28;20200;-64
2022/07/28 06:48:28;;;;;;;8.73;7.83;;;17.70;99.90;19.40;96964.00;;;;5066852;28;20679;-63
2022/07/28 06:51:18;;;;;;;8.40;7.60;;;17.80;99.90;19.80;96968.00;;;;5065129;28;20215;-64
2022/07/28 06:54:07;;;;;;;10.60;6.70;;;17.90;99.90;19.70;96962.00;;;;5067990;28;20216;-64
2022/07/28 06:57:00;;;;;;;9.23;7.47;;;18.00;99.90;20.00;96965.00;;;;5068184;28;20203;-64
2022/07/28 06:59:49;;;;;;;7.90;6.40;;;18.20;99.90;19.80;96972.00;;;;5066974;28;20215;-63
2022/07/28 07:02:39;;;;;;;13.60;7.50;;;18.30;99.90;19.80;96969.00;;;;5067851;28;20694;-64
2022/07/28 07:05:30;;;;;;;7.47;6.57;;;18.30;99.90;20.00;96967.00;;;;5066354;28;20614;-63
2022/07/28 07:08:20;;;;;;;7.87;7.07;;;18.40;99.90;20.00;96967.00;;;;5062892;28;20213;-64
2022/07/28 07:11:08;;;;;;;9.37;8.40;;;18.50;99.90;20.10;96963.00;;;;5060283;28;20199;-64
2022/07/28 07:13:59;;;;;;;9.13;6.83;;;18.60;99.90;20.40;96969.00;;;;5062271;28;20217;-63
2022/07/28 07:16:49;;;;;;;8.90;6.70;;;18.70;99.90;20.50;96966.00;;;;5057359;28;20205;-64
2022/07/28 07:19:38;;;;;;;7.93;7.13;;;18.80;99.90;20.40;96973.00;;;;5056299;28;20595;-64
2022/07/28 07:22:27;;;;;;;7.70;6.83;;;18.90;99.90;20.40;96979.00;;;;5066449;28;20214;-64
2022/07/28 07:25:19;;;;;;;7.60;6.83;;;19.00;99.90;20.70;96965.00;;;;5062817;28;20211;-64
2022/07/28 07:28:07;;;;;;;7.30;6.70;;;19.10;99.90;20.60;96964.00;;;;5062281;28;20201;-64
2022/07/28 07:30:57;;;;;;;6.37;5.50;;;19.20;99.90;20.80;96972.00;;;;5055809;28;20698;-64
2022/07/28 07:33:46;;;;;;;6.90;6.13;;;19.30;99.90;21.10;96966.00;;;;5066847;28;20220;-63
2022/07/28 07:36:36;;;;;;;7.47;6.00;;;19.30;99.90;21.30;96974.00;;;;5067187;28;20200;-64
2022/07/28 07:39:24;;;;;;;8.10;6.93;;;19.50;99.90;21.30;96968.00;;;;5066686;28;20220;-64
2022/07/28 07:42:13;;;;;;;7.10;6.10;;;19.60;99.90;21.60;96970.00;;;;5061461;28;20200;-64
2022/07/28 07:45:02;;;;;;;7.83;6.70;;;19.80;99.90;21.70;96968.00;;;;5060823;28;20203;-64
2022/07/28 07:47:52;;;;;;;8.20;6.30;;;19.90;99.90;22.10;96968.00;;;;5056746;28;20209;-64
2022/07/28 07:50:41;;;;;;;7.37;6.60;;;20.10;99.90;22.50;96967.00;;;;5067091;28;20208;-63
2022/07/28 07:53:30;;;;;;;7.60;6.77;;;20.30;99.90;22.60;96969.00;;;;5062496;28;20228;-65
2022/07/28 07:56:19;;;;;;;7.40;6.60;;;20.50;99.90;22.80;96987.00;;;;5068303;28;20200;-63
2022/07/28 07:59:07;;;;;;;7.77;7.03;;;20.70;99.90;22.90;96977.00;;;;5056159;28;20224;-64
2022/07/28 08:01:56;;;;;;;6.97;6.27;;;20.80;99.90;23.00;96975.00;;;;5054003;28;20215;-65
2022/07/28 08:04:46;;;;;;;8.67;6.30;;;21.00;99.90;23.40;96969.00;;;;5058398;28;20239;-63
2022/07/28 08:07:35;;;;;;;8.50;6.33;;;21.20;99.90;23.50;96970.00;;;;5055607;28;20238;-63
2022/07/28 08:10:24;;;;;;;11.47;6.87;;;21.30;99.90;23.60;96966.00;;;;5058562;28;20235;-64
2022/07/28 08:13:13;;;;;;;8.70;6.50;;;21.50;99.90;23.70;96973.00;;;;5050850;28;20227;-63
2022/07/28 08:16:02;;;;;;;6.57;5.83;;;21.60;99.90;23.70;96975.00;;;;5056300;28;20215;-65
2022/07/28 08:18:52;;;;;;;7.57;6.20;;;21.70;99.90;23.80;96973.00;;;;5052788;28;20200;-63
2022/07/28 08:21:42;;;;;;;8.67;6.13;;;21.80;99.90;24.10;96966.00;;;;5067018;28;20215;-64
2022/07/28 08:24:31;;;;;;;6.90;6.30;;;21.90;99.90;24.00;96969.00;;;;5061890;28;20229;-64
2022/07/28 08:27:21;;;;;;;6.33;5.73;;;22.10;99.90;24.10;96957.00;;;;5065631;28;20261;-63
2022/07/28 08:30:13;;;;;;;6.80;5.70;;;22.10;99.90;24.30;96959.00;;;;5055596;28;20204;-64
2022/07/28 08:33:02;;;;;;;6.57;5.80;;;22.30;99.90;24.20;96959.00;;;;5066935;28;20242;-64
2022/07/28 08:35:51;;;;;;;6.80;5.60;;;22.30;99.90;24.40;96962.00;;;;5066033;28;20207;-64
2022/07/28 08:38:41;;;;;;;5.67;5.17;;;22.40;99.90;24.10;96963.00;;;;5067346;28;20557;-64
2022/07/28 08:41:37;;;;;;;5.47;4.97;;;22.40;99.90;24.10;96962.00;;;;5050852;28;20216;-67
2022/07/28 08:44:41;;;;;;;6.87;5.20;;;22.40;99.90;24.50;96966.00;;;;5055163;28;20231;-66
2022/07/28 08:47:32;;;;;;;6.23;5.60;;;22.50;99.90;24.90;96965.00;;;;5056141;28;20199;-66
2022/07/28 08:50:29;;;;;;;6.67;4.83;;;22.90;99.90;25.20;96976.00;;;;5059540;28;20691;-66
2022/07/28 08:53:20;;;;;;;5.37;4.77;;;22.80;99.90;25.30;96972.00;;;;5061705;28;20222;-66
2022/07/28 08:56:14;;;;;;;6.27;5.53;;;23.00;99.90;25.30;96974.00;;;;5055996;28;20197;-65
2022/07/28 08:59:03;;;;;;;5.97;4.60;;;23.10;99.90;25.20;96975.00;;;;5058432;28;20675;-65
2022/07/28 09:01:53;;;;;;;5.50;5.00;;;23.20;99.90;25.50;96972.00;;;;5065635;28;20200;-64
2022/07/28 09:04:45;;;;;;;7.30;5.87;;;23.30;99.90;25.40;96965.00;;;;5062321;28;20881;-64
2022/07/28 09:07:36;;;;;;;5.63;5.13;;;23.50;99.90;25.70;96957.00;;;;5059714;28;20200;-64
2022/07/28 09:10:25;;;;;;;5.73;5.13;;;23.60;99.90;26.20;96956.00;;;;5058362;28;20201;-64
2022/07/28 09:13:16;;;;;;;6.27;4.87;;;23.80;99.90;26.60;96958.00;;;;5059109;28;20228;-65
2022/07/28 09:16:06;;;;;;;7.50;4.60;;;24.00;99.90;26.80;96969.00;;;;5053223;28;20209;-65
2022/07/28 09:18:54;;;;;;;7.17;5.23;;;24.30;99.90;26.30;96964.00;;;;5055607;28;20295;-64
2022/07/28 09:21:43;;;;;;;4.67;4.10;;;24.30;99.90;26.60;96970.00;;;;5057853;28;20224;-65
2022/07/28 09:24:35;;;;;;;4.20;3.80;;;24.40;99.90;26.40;96975.00;;;;5036355;28;20236;-65
2022/07/28 09:27:24;;;;;;;4.00;3.60;;;24.40;99.90;26.80;96953.00;;;;5051498;28;20201;-65
2022/07/28 09:30:14;;;;;;;3.60;3.30;;;24.50;99.90;27.40;96961.00;;;;5049200;28;20206;-64
2022/07/28 09:33:15;;;;;;;3.93;3.63;;;24.70;99.90;27.70;96951.00;;;;5058551;28;20215;-64
2022/07/28 09:36:04;;;;;;;3.60;3.30;;;25.10;99.90;27.80;96956.00;;;;5068231;28;20211;-64
2022/07/28 09:38:55;;;;;;;3.60;3.30;;;25.30;99.90;27.40;96948.00;;;;5062898;28;20207;-65
2022/07/28 09:41:48;;;;;;;3.90;3.40;;;25.50;99.90;27.20;96954.00;;;;5061896;28;20230;-64
2022/07/28 09:44:36;;;;;;;3.53;3.23;;;25.50;99.90;26.70;96952.00;;;;5058955;28;20758;-64
2022/07/28 09:47:31;;;;;;;4.10;2.90;;;25.40;99.90;27.30;96944.00;;;;5061444;28;20197;-64
2022/07/28 09:50:22;;;;;;;3.60;3.30;;;25.40;99.90;27.60;96954.00;;;;5056253;28;20208;-65
2022/07/28 09:53:28;;;;;;;5.17;3.43;;;25.50;99.90;28.30;96948.00;;;;5062612;28;20230;-65
2022/07/28 09:56:17;;;;;;;4.63;3.60;;;25.70;99.90;28.50;96949.00;;;;5060669;28;20211;-64
2022/07/28 09:59:07;;;;;;;3.10;2.90;;;25.90;99.90;28.70;96937.00;;;;5055932;28;20199;-64
2022/07/28 10:01:59;;;;;;;4.20;3.20;;;26.20;99.90;28.60;96942.00;;;;5059121;28;20224;-64
2022/07/28 10:04:52;;;;;;;3.67;2.90;;;26.40;99.90;28.70;96933.00;;;;5056820;28;20209;-64
2022/07/28 10:07:49;;;;;;;3.53;3.23;;;26.50;99.90;29.30;96933.00;;;;5061285;28;20218;-64
2022/07/28 10:10:38;;;;;;;4.23;2.47;;;26.80;99.90;29.80;96927.00;;;;5059404;28;20202;-64
2022/07/28 10:13:27;;;;;;;5.23;2.97;;;27.00;99.90;29.80;96924.00;;;;5061296;28;20222;-64
2022/07/28 10:16:17;;;;;;;4.13;3.40;;;27.20;99.90;30.00;96923.00;;;;5056900;28;20212;-63
2022/07/28 10:19:06;;;;;;;3.13;2.53;;;27.40;99.90;29.40;96921.00;;;;5055591;28;20194;-64
2022/07/28 10:21:58;;;;;;;4.73;2.90;;;27.50;99.90;28.20;96911.00;;;;5056236;28;20227;-64
2022/07/28 10:24:51;;;;;;;2.67;2.27;;;27.30;96.00;28.10;96907.00;;;;5056297;28;20198;-64
2022/07/28 10:27:42;;;;;;;2.97;2.77;;;27.10;95.80;28.50;96913.00;;;;5050556;28;20222;-65
2022/07/28 10:30:35;;;;;;;2.83;2.50;;;26.80;96.20;28.30;96904.00;;;;5054696;28;20215;-66
2022/07/28 10:33:25;;;;;;;2.90;2.70;;;26.80;96.90;27.90;96905.00;;;;5054675;28;20611;-64
2022/07/28 10:36:17;;;;;;;4.03;3.00;;;26.80;96.30;29.60;96897.00;;;;5051474;28;20203;-64
2022/07/28 10:39:13;;;;;;;4.40;3.33;;;27.00;98.30;30.00;96907.00;;;;5056784;28;20204;-65
2022/07/28 10:42:03;;;;;;;4.40;3.27;;;27.30;99.80;29.70;96903.00;;;;5049862;28;20237;-65
2022/07/28 10:44:54;;;;;;;4.53;3.53;;;27.60;96.20;30.30;96896.00;;;;5053340;28;20695;-65
2022/07/28 10:47:45;;;;;;;3.67;3.27;;;27.70;96.00;30.30;96888.00;;;;5057417;28;20201;-65
2022/07/28 10:50:36;;;;;;;3.23;2.93;;;28.00;96.10;30.70;96896.00;;;;5087159;22;20255;-69
2022/07/28 10:53:38;;;;;;;4.97;3.20;;;28.10;96.40;30.60;96893.00;;;;5052561;28;20607;-69
2022/07/28 10:56:45;;;;;;;3.63;3.27;;;28.20;95.60;30.50;96903.00;;;;5060299;28;20214;-69
2022/07/28 10:59:54;;;;;;;4.07;3.50;;;28.30;96.40;30.50;96888.00;;;;5050955;28;20243;-69
2022/07/28 11:02:50;;;;;;;2.77;2.57;;;28.30;95.50;30.30;96874.00;;;;5041783;28;20585;-69
2022/07/28 11:05:39;;;;;;;3.57;3.27;;;28.40;92.90;31.10;96872.00;;;;5042490;28;20276;-69
2022/07/28 11:08:30;;;;;;;3.17;2.83;;;28.50;92.40;31.60;96869.00;;;;5038106;28;20208;-68
2022/07/28 11:11:44;;;;;;;4.07;3.30;;;28.80;94.10;31.50;96912.00;;;;5035390;28;20591;-68
2022/07/28 11:14:36;;;;;;;3.80;2.57;;;29.10;94.60;30.50;96859.00;;;;5033404;28;20215;-68
2022/07/28 11:17:25;;;;;;;3.23;2.93;;;29.10;93.00;30.30;96858.00;;;;5043786;28;20219;-69
2022/07/28 11:20:14;;;;;;;3.70;3.40;;;28.90;91.70;31.10;96914.00;;;;5041598;28;20226;-69
2022/07/28 11:23:42;;;;;;;3.80;3.30;;;29.00;92.20;29.10;96849.00;;;;5033295;28;20207;-70
2022/07/28 11:26:40;;;;;;;3.20;3.00;;;28.80;91.80;29.10;96852.00;;;;5015997;28;20211;-66
2022/07/28 11:29:45;;;;;;;3.33;3.03;;;28.40;90.60;29.00;96848.00;;;;5042511;28;20227;-69
2022/07/28 11:32:59;;;;;;;4.00;3.27;;;28.00;90.90;29.00;96854.00;;;;5043231;28;20206;-67
2022/07/28 11:35:59;;;;;;;4.83;3.33;;;27.90;91.10;29.50;96836.00;;;;5038331;28;21588;-71
2022/07/28 11:39:21;;;;;;;3.93;3.60;;;27.80;91.90;31.50;96846.00;;;;5043833;28;20245;-72
2022/07/28 11:42:27;;;;;;;6.07;3.70;;;28.20;94.80;31.50;96837.00;;;;5038754;28;20252;-71
2022/07/28 11:45:26;;;;;;;3.97;3.40;;;28.90;92.90;32.10;96854.00;;;;5033713;28;20200;-71
2022/07/28 11:48:16;;;;;;;4.07;3.40;;;29.20;93.40;32.00;96904.00;;;;5042582;28;20219;-70
2022/07/28 11:51:12;;;;;;;3.67;3.38;;;29.60;91.30;30.90;96891.00;;;;5039579;28;20216;-75
2022/07/28 11:54:03;;;;;;;5.22;3.45;;;29.60;88.90;31.00;96887.00;;;;5038653;28;20863;-72
2022/07/28 11:56:58;;;;;;;3.90;3.33;;;29.30;91.30;32.40;96846.00;;;;5055173;28;20589;-72
2022/07/28 11:59:52;;;;;;;3.88;3.50;;;29.60;92.00;32.70;96844.00;;;;5032598;28;20231;-71
2022/07/28 12:02:42;;;;;;;3.53;3.22;;;30.10;89.70;29.10;96804.00;;;;5039860;28;20205;-64
2022/07/28 12:05:32;;;;;;;3.00;2.72;;;29.40;84.40;29.30;96817.00;;;;5029476;28;20205;-67
2022/07/28 12:08:21;;;;;;;3.00;2.67;;;28.70;86.50;29.20;96821.00;;;;5028799;28;20212;-77
2022/07/28 12:11:10;;;;;;;4.20;2.87;;;28.50;88.10;30.00;96814.00;;;;5041967;28;20228;-68
2022/07/28 12:14:00;;;;;;;4.10;3.00;;;28.50;89.30;28.70;96813.00;;;;5030344;28;20697;-66
2022/07/28 12:16:51;;;;;;;4.03;2.90;;;28.20;85.70;29.00;96811.00;;;;5039370;28;20209;-64
2022/07/28 12:19:41;;;;;;;3.30;3.00;;;28.00;86.60;29.30;96817.00;;;;5036218;28;20233;-65
2022/07/28 12:22:30;;;;;;;2.50;2.30;;;28.00;85.90;30.10;96857.00;;;;5043121;28;20558;-66
2022/07/28 12:25:19;;;;;;;3.10;2.60;;;28.20;86.70;29.10;96876.00;;;;5041925;28;20200;-68
2022/07/28 12:28:20;;;;;;;3.43;2.60;;;27.90;83.70;31.00;96813.00;;;;5036593;28;20599;-70
2022/07/28 12:31:12;;;;;;;3.10;2.90;;;28.30;87.30;30.70;96805.00;;;;5047185;28;20218;-73
2022/07/28 12:34:04;;;;;;;2.93;2.63;;;28.70;85.30;32.30;96808.00;;;;5040209;28;20214;-72
2022/07/28 12:36:55;;;;;;;3.30;3.00;;;29.10;83.50;32.40;96802.00;;;;5040396;28;20587;-73
2022/07/28 12:39:51;;;;;;;3.53;2.67;;;29.70;85.20;33.90;96803.00;;;;5033394;28;21235;-71
2022/07/28 12:42:40;;;;;;;3.28;2.95;;;30.30;85.30;33.80;96799.00;;;;5034694;28;20229;-71